Time;durP1;ratioP1;P1;durP2;ratioP2;P2;SDS_P1;SDS_P2;PMS_P1;PMS_P2;Temp;Humidity;BMP_temperature;BMP_pressure;BME280_temperature;BME280_humidity;BME280_pressure;Samples;Min_cycle;Max_cycle;Signal;HPM_P1;HPM_P2
2021/09/18 00:02:54;;;;;;;11.23;7.10;;;;;;;14.21;100.00;99516.94;6277436;28;20480;-78
2021/09/18 00:05:56;;;;;;;8.53;6.97;;;;;;;14.14;100.00;99524.47;6245363;28;20411;-78
2021/09/18 00:08:57;;;;;;;7.97;6.43;;;;;;;14.03;100.00;99532.41;6277112;28;20068;-78
2021/09/18 00:11:58;;;;;;;7.82;6.30;;;;;;;13.98;100.00;99529.34;6230789;28;20061;-78
2021/09/18 00:15:01;;;;;;;10.35;6.28;;;;;;;14.00;100.00;99527.41;6282233;28;20060;-78
2021/09/18 00:18:02;;;;;;;13.50;8.75;;;;;;;14.04;100.00;99531.44;6250078;28;20043;-78
2021/09/18 00:21:04;;;;;;;8.27;6.95;;;;;;;13.99;100.00;99531.84;6250199;28;20041;-78
2021/09/18 00:24:05;;;;;;;9.98;7.40;;;;;;;14.02;100.00;99528.13;6265363;28;20092;-78
2021/09/18 00:27:06;;;;;;;9.05;6.63;;;;;;;13.99;100.00;99536.25;6250016;28;20045;-78
2021/09/18 00:30:07;;;;;;;10.23;7.20;;;;;;;13.98;100.00;99530.19;6249089;28;20462;-78
2021/09/18 00:33:08;;;;;;;12.30;7.25;;;;;;;13.86;100.00;99523.34;6249723;28;20520;-78
2021/09/18 00:36:09;;;;;;;11.45;6.95;;;;;;;13.89;100.00;99526.50;6281891;28;20116;-78
2021/09/18 00:39:10;;;;;;;8.88;6.90;;;;;;;13.94;100.00;99536.66;6248559;28;20503;-78
2021/09/18 00:42:11;;;;;;;12.07;7.03;;;;;;;13.88;100.00;99526.66;6248565;28;20484;-78
2021/09/18 00:45:12;;;;;;;10.00;6.32;;;;;;;13.92;100.00;99538.56;6249450;28;20037;-78
2021/09/18 00:48:14;;;;;;;13.73;7.13;;;;;;;13.91;100.00;99539.50;6215947;28;20049;-78
2021/09/18 00:51:17;;;;;;;11.32;7.50;;;;;;;13.93;100.00;99540.22;6281449;28;20423;-78
2021/09/18 00:54:18;;;;;;;8.50;6.45;;;;;;;13.92;100.00;99538.56;6247969;28;20060;-78
2021/09/18 00:57:19;;;;;;;11.23;7.13;;;;;;;13.90;100.00;99543.94;6264766;28;20496;-78
2021/09/18 01:00:20;;;;;;;11.10;6.88;;;;;;;13.82;100.00;99538.50;6248129;28;20452;-78
2021/09/18 01:03:21;;;;;;;13.48;7.35;;;;;;;13.78;100.00;99539.69;6280974;28;20099;-78
2021/09/18 01:06:22;;;;;;;10.25;6.95;;;;;;;13.78;100.00;99546.75;6281072;28;20476;-78
2021/09/18 01:09:23;;;;;;;10.57;6.93;;;;;;;13.83;100.00;99545.38;6247952;28;20069;-78
2021/09/18 01:12:24;;;;;;;10.38;7.18;;;;;;;13.73;100.00;99541.03;6280894;28;20053;-78
2021/09/18 01:15:26;;;;;;;10.02;7.10;;;;;;;13.81;100.00;99547.28;6247854;28;20043;-78
2021/09/18 01:18:27;;;;;;;9.50;6.57;;;;;;;13.78;100.00;99551.97;6248986;28;20045;-78
2021/09/18 01:21:27;;;;;;;8.55;6.38;;;;;;;13.82;100.00;99548.16;6280971;28;20510;-78
2021/09/18 01:24:28;;;;;;;10.05;6.53;;;;;;;13.67;100.00;99548.44;6279788;28;20061;-78
2021/09/18 01:27:29;;;;;;;9.77;6.25;;;;;;;13.73;100.00;99547.09;6248992;28;20053;-78
2021/09/18 01:30:33;;;;;;;11.77;6.13;;;;;;;13.85;100.00;99542.63;6248723;28;20041;-78
2021/09/18 01:33:35;;;;;;;10.68;5.85;;;;;;;13.90;100.00;99541.31;6263553;28;20048;-78
2021/09/18 01:36:36;;;;;;;8.77;5.93;;;;;;;13.83;100.00;99542.75;6248641;28;20120;-78
2021/09/18 01:39:37;;;;;;;9.00;5.80;;;;;;;13.70;100.00;99540.31;6263952;28;20056;-78
2021/09/18 01:42:43;;;;;;;10.40;6.10;;;;;;;13.61;100.00;99550.72;6247085;28;20049;-77
2021/09/18 01:45:44;;;;;;;9.90;6.10;;;;;;;13.60;100.00;99543.81;6247098;28;20109;-78
2021/09/18 01:48:45;;;;;;;10.90;6.15;;;;;;;13.58;100.00;99541.31;6248318;28;20492;-78
2021/09/18 01:51:59;;;;;;;8.80;5.70;;;;;;;13.64;100.00;99542.63;6263355;28;20507;-78
2021/09/18 01:55:00;;;;;;;13.20;5.53;;;;;;;13.70;100.00;99540.31;6276629;28;20485;-78
2021/09/18 01:58:02;;;;;;;7.88;5.60;;;;;;;13.69;100.00;99549.16;6263204;28;20052;-78
2021/09/18 02:01:04;;;;;;;9.00;6.00;;;;;;;13.73;100.00;99546.28;6263073;28;20042;-78
2021/09/18 02:04:05;;;;;;;8.65;5.75;;;;;;;13.74;100.00;99551.41;6247829;28;20045;-78
2021/09/18 02:07:06;;;;;;;10.48;5.60;;;;;;;13.75;100.00;99547.81;6246496;28;20045;-78
2021/09/18 02:10:10;;;;;;;9.43;5.88;;;;;;;13.78;100.00;99547.56;6279533;28;20042;-79
2021/09/18 02:13:12;;;;;;;8.00;5.18;;;;;;;13.78;100.00;99538.88;6246426;28;20069;-78
2021/09/18 02:16:12;;;;;;;8.07;5.13;;;;;;;13.84;100.00;99546.22;6247646;28;20080;-78
2021/09/18 02:19:13;;;;;;;6.20;4.85;;;;;;;13.88;100.00;99551.09;6279675;28;20099;-78
2021/09/18 02:22:15;;;;;;;6.70;4.97;;;;;;;13.98;100.00;99552.94;6262682;28;20045;-78
2021/09/18 02:25:17;;;;;;;8.00;5.37;;;;;;;14.02;100.00;99563.06;6262697;28;20045;-78
2021/09/18 02:28:18;;;;;;;7.93;5.22;;;;;;;14.04;100.00;99555.91;6279062;28;20191;-78
2021/09/18 02:31:19;;;;;;;10.05;5.60;;;;;;;14.03;100.00;99554.22;6262410;28;20051;-78
2021/09/18 02:34:20;;;;;;;7.18;5.18;;;;;;;14.01;100.00;99560.56;6278921;28;20049;-78
2021/09/18 02:37:21;;;;;;;7.93;5.63;;;;;;;13.90;100.00;99556.22;6247558;28;20076;-78
2021/09/18 02:40:24;;;;;;;12.02;4.85;;;;;;;13.89;100.00;99554.53;6278939;28;20042;-78
2021/09/18 02:43:25;;;;;;;6.93;4.68;;;;;;;13.93;100.00;99555.94;6247156;28;20109;-78
2021/09/18 02:46:26;;;;;;;10.82;5.30;;;;;;;14.02;100.00;99562.22;6246689;28;20196;-78
2021/09/18 02:49:27;;;;;;;6.93;5.00;;;;;;;13.98;100.00;99564.28;6278874;28;20092;-78
2021/09/18 02:52:28;;;;;;;6.35;4.57;;;;;;;14.03;100.00;99567.34;6278915;28;20480;-78
2021/09/18 02:55:29;;;;;;;7.13;4.65;;;;;;;13.91;100.00;99563.09;6278541;28;20041;-78
2021/09/18 02:58:30;;;;;;;8.82;5.32;;;;;;;13.84;100.00;99568.03;6261987;28;20079;-78
2021/09/18 03:01:31;;;;;;;8.18;5.35;;;;;;;13.79;100.00;99566.75;6278648;28;20374;-78
2021/09/18 03:04:32;;;;;;;10.45;5.05;;;;;;;13.76;100.00;99554.72;6261740;28;20053;-78
2021/09/18 03:07:33;;;;;;;7.85;5.55;;;;;;;13.83;100.00;99565.53;6245181;28;20037;-78
2021/09/18 03:10:34;;;;;;;7.28;5.20;;;;;;;13.99;100.00;99562.47;6278316;28;20041;-78
2021/09/18 03:13:36;;;;;;;6.55;4.65;;;;;;;13.99;100.00;99567.72;6261560;28;20050;-78
2021/09/18 03:16:36;;;;;;;7.07;5.32;;;;;;;13.95;100.00;99571.56;6246305;28;20044;-78
2021/09/18 03:19:37;;;;;;;11.93;5.00;;;;;;;13.83;100.00;99558.50;6261291;28;20473;-78
2021/09/18 03:22:38;;;;;;;8.77;5.13;;;;;;;13.82;100.00;99566.50;6278117;28;20052;-78
2021/09/18 03:25:42;;;;;;;7.00;5.13;;;;;;;13.86;100.00;99565.28;6277967;28;20042;-78
2021/09/18 03:28:43;;;;;;;7.07;4.78;;;;;;;13.91;100.00;99565.72;6278015;28;20045;-78
2021/09/18 03:31:44;;;;;;;7.60;4.45;;;;;;;13.91;100.00;99563.09;6277824;28;20037;-78
2021/09/18 03:34:45;;;;;;;9.02;5.18;;;;;;;14.03;100.00;99574.38;6277681;28;20041;-78
2021/09/18 03:37:46;;;;;;;16.77;5.07;;;;;;;14.10;100.00;99572.91;6245744;28;20124;-78
2021/09/18 03:40:47;;;;;;;9.10;4.78;;;;;;;14.00;100.00;99572.84;6245640;28;20052;-78
2021/09/18 03:43:48;;;;;;;10.38;5.03;;;;;;;13.99;100.00;99575.59;6244452;28;20373;-78
2021/09/18 03:46:49;;;;;;;6.35;4.78;;;;;;;14.04;100.00;99576.03;6245051;28;20045;-78
2021/09/18 03:49:50;;;;;;;6.87;4.90;;;;;;;14.00;100.00;99572.00;6245957;28;20503;-78
2021/09/18 03:52:51;;;;;;;6.20;4.57;;;;;;;13.97;100.00;99570.47;6260556;28;20075;-78
2021/09/18 03:55:52;;;;;;;7.75;5.07;;;;;;;13.99;100.00;99576.41;6244437;28;20061;-78
2021/09/18 03:58:52;;;;;;;7.95;5.53;;;;;;;13.99;100.00;99584.28;6260970;28;20103;-78
2021/09/18 04:01:53;;;;;;;8.30;5.30;;;;;;;13.98;100.00;99573.91;6277282;28;20041;-78
2021/09/18 04:04:54;;;;;;;7.22;5.22;;;;;;;13.89;100.00;99573.72;6277390;28;20068;-78
2021/09/18 04:07:55;;;;;;;7.03;5.30;;;;;;;13.96;100.00;99573.22;6245320;28;20480;-78
2021/09/18 04:10:56;;;;;;;8.57;5.28;;;;;;;13.98;100.00;99574.78;6245281;28;20124;-78
2021/09/18 04:13:57;;;;;;;8.10;5.35;;;;;;;13.99;100.00;99575.59;6260469;28;20119;-78
2021/09/18 04:16:58;;;;;;;8.25;5.22;;;;;;;13.98;100.00;99577.41;6244019;28;20045;-78
2021/09/18 04:19:59;;;;;;;7.13;5.30;;;;;;;13.96;100.00;99584.56;6244204;28;20049;-78
2021/09/18 04:23:00;;;;;;;8.13;5.72;;;;;;;14.08;100.00;99586.16;6260456;28;20448;-78
2021/09/18 04:26:01;;;;;;;8.90;5.70;;;;;;;14.04;100.00;99587.38;6276918;28;20044;-78
2021/09/18 04:29:02;;;;;;;9.48;5.40;;;;;;;14.01;100.00;99581.53;6277193;28;20041;-78
2021/09/18 04:32:04;;;;;;;9.13;4.90;;;;;;;13.87;100.00;99580.88;6260309;28;20041;-78
2021/09/18 04:35:05;;;;;;;8.80;5.07;;;;;;;13.98;100.00;99582.63;6260165;28;20121;-78
2021/09/18 04:38:06;;;;;;;8.50;5.15;;;;;;;14.02;100.00;99576.19;6260246;28;20044;-78
2021/09/18 04:41:08;;;;;;;7.15;4.63;;;;;;;14.05;100.00;99586.41;6276824;28;20042;-78
2021/09/18 04:44:09;;;;;;;7.28;5.35;;;;;;;14.04;100.00;99586.53;6243648;28;20099;-78
2021/09/18 04:47:10;;;;;;;8.45;5.13;;;;;;;14.08;100.00;99587.94;6260422;28;20053;-78
2021/09/18 04:50:11;;;;;;;6.60;5.05;;;;;;;14.15;100.00;99589.09;6260045;28;20037;-78
2021/09/18 04:53:12;;;;;;;7.10;4.75;;;;;;;14.17;100.00;99589.81;6244707;28;20056;-78
2021/09/18 04:56:13;;;;;;;8.27;4.40;;;;;;;14.20;100.00;99584.28;6243597;28;20041;-78
2021/09/18 04:59:14;;;;;;;7.90;5.72;;;;;;;14.17;100.00;99594.22;6279895;28;20492;-78
2021/09/18 05:02:15;;;;;;;8.70;4.82;;;;;;;14.13;100.00;99587.56;6281237;28;20041;-78
2021/09/18 05:05:16;;;;;;;6.35;4.60;;;;;;;14.21;100.00;99593.03;6281032;28;20103;-78
2021/09/18 05:08:17;;;;;;;6.53;4.82;;;;;;;14.23;100.00;99591.91;6249169;28;20096;-78
2021/09/18 05:11:18;;;;;;;9.35;4.78;;;;;;;14.26;100.00;99589.03;6247863;28;20084;-78
2021/09/18 05:14:18;;;;;;;6.10;4.25;;;;;;;14.27;100.00;99598.56;6264231;28;20049;-78
2021/09/18 05:17:19;;;;;;;7.07;4.75;;;;;;;14.30;100.00;99595.69;6280901;28;20072;-78
2021/09/18 05:20:21;;;;;;;9.13;5.13;;;;;;;14.23;100.00;99598.97;6248696;28;20381;-79
2021/09/18 05:23:22;;;;;;;5.87;4.43;;;;;;;14.18;100.00;99601.94;6247610;28;20041;-79
2021/09/18 05:26:23;;;;;;;6.80;4.53;;;;;;;14.20;100.00;99599.22;6247483;28;20045;-79
2021/09/18 05:29:24;;;;;;;6.57;4.15;;;;;;;14.15;100.00;99596.97;6280848;28;20534;-79
2021/09/18 05:32:25;;;;;;;10.40;5.20;;;;;;;14.22;100.00;99590.25;6257983;28;20405;-79
2021/09/18 05:35:26;;;;;;;5.75;4.30;;;;;;;14.25;100.00;99589.19;6280519;28;20119;-78
2021/09/18 05:38:27;;;;;;;6.95;4.20;;;;;;;14.26;100.00;99596.91;6276152;28;20052;-78
2021/09/18 05:41:28;;;;;;;6.07;4.40;;;;;;;14.30;100.00;99598.31;6288153;28;20520;-78
2021/09/18 05:44:29;;;;;;;6.90;4.55;;;;;;;14.35;100.00;99592.69;6271838;28;20073;-78
2021/09/18 05:47:30;;;;;;;5.47;4.20;;;;;;;14.36;100.00;99604.84;6305426;28;20041;-78
2021/09/18 05:50:31;;;;;;;7.60;4.57;;;;;;;14.34;100.00;99605.94;6288398;28;20052;-78
2021/09/18 05:53:32;;;;;;;6.18;4.60;;;;;;;14.47;100.00;99599.50;6285647;28;20049;-78
2021/09/18 05:56:33;;;;;;;7.35;4.30;;;;;;;14.45;100.00;99605.84;6304954;28;20399;-78
2021/09/18 05:59:34;;;;;;;7.30;4.78;;;;;;;14.42;100.00;99601.69;6271641;28;20093;-78
2021/09/18 06:02:35;;;;;;;7.80;4.78;;;;;;;14.44;100.00;99605.03;6271488;28;20040;-78
2021/09/18 06:05:36;;;;;;;5.90;4.45;;;;;;;14.50;100.00;99611.56;6287883;28;20037;-77
2021/09/18 06:08:37;;;;;;;6.85;4.30;;;;;;;14.53;100.00;99603.41;6287456;28;20052;-78
2021/09/18 06:11:38;;;;;;;8.80;4.80;;;;;;;14.65;100.00;99604.22;6272327;28;20041;-78
2021/09/18 06:14:39;;;;;;;10.65;4.88;;;;;;;14.64;100.00;99610.41;6272304;28;20037;-78
2021/09/18 06:17:40;;;;;;;8.05;4.78;;;;;;;14.72;100.00;99602.69;6272310;28;20377;-77
2021/09/18 06:20:41;;;;;;;8.00;5.28;;;;;;;14.93;100.00;99601.81;6287475;28;20041;-78
2021/09/18 06:23:42;;;;;;;7.45;5.20;;;;;;;15.04;100.00;99607.00;6272061;28;20045;-77
2021/09/18 06:26:48;;;;;;;7.60;5.07;;;;;;;15.15;100.00;99599.00;6303365;28;20056;-78
2021/09/18 06:29:49;;;;;;;7.50;5.55;;;;;;;15.15;100.00;99606.06;6270646;28;20041;-78
2021/09/18 06:32:49;;;;;;;8.50;4.85;;;;;;;15.20;100.00;99602.06;6271759;28;20044;-77
2021/09/18 06:35:50;;;;;;;9.95;5.45;;;;;;;15.40;100.00;99608.22;6303986;28;20037;-77
2021/09/18 06:38:51;;;;;;;7.72;5.47;;;;;;;15.58;100.00;99607.53;6270742;28;20083;-76
2021/09/18 06:41:53;;;;;;;9.32;6.00;;;;;;;15.59;100.00;99614.47;6286841;28;20123;-77
2021/09/18 06:44:53;;;;;;;7.97;5.60;;;;;;;15.61;100.00;99607.28;6303625;28;20068;-77
2021/09/18 06:47:57;;;;;;;7.38;5.50;;;;;;;15.53;100.00;99613.22;6303617;28;20048;-77
2021/09/18 06:50:58;;;;;;;6.57;5.55;;;;;;;15.52;100.00;99607.13;6270479;28;20045;-77
2021/09/18 06:53:59;;;;;;;10.02;5.95;;;;;;;15.41;100.00;99609.03;6303394;28;20584;-79
2021/09/18 06:57:00;;;;;;;7.82;6.40;;;;;;;15.42;100.00;99602.78;6303597;28;20047;-77
2021/09/18 07:00:05;;;;;;;9.68;5.88;;;;;;;15.44;100.00;99606.13;6303573;28;20036;-77
2021/09/18 07:03:06;;;;;;;9.68;5.68;;;;;;;15.55;100.00;99619.16;6286253;28;20049;-78
2021/09/18 07:06:07;;;;;;;8.05;6.18;;;;;;;15.57;100.00;99609.34;6271266;28;20041;-77
2021/09/18 07:09:08;;;;;;;14.00;6.73;;;;;;;15.68;100.00;99611.00;6286509;28;20041;-77
2021/09/18 07:12:09;;;;;;;7.75;5.90;;;;;;;15.68;100.00;99613.63;6303267;28;20463;-77
2021/09/18 07:15:10;;;;;;;7.35;5.65;;;;;;;15.71;100.00;99614.19;6303323;28;20510;-77
2021/09/18 07:18:12;;;;;;;9.40;7.00;;;;;;;15.68;100.00;99626.78;6269833;28;20512;-77
2021/09/18 07:21:13;;;;;;;8.18;6.40;;;;;;;15.52;100.00;99612.38;6285572;28;20090;-77
2021/09/18 07:24:14;;;;;;;12.00;7.20;;;;;;;15.41;100.00;99615.13;6303040;28;20103;-77
2021/09/18 07:27:16;;;;;;;9.52;7.05;;;;;;;15.65;100.00;99616.56;6270569;28;20052;-79
2021/09/18 07:30:17;;;;;;;8.10;6.63;;;;;;;15.87;100.00;99607.56;6269814;28;20084;-77
2021/09/18 07:33:18;;;;;;;10.65;6.80;;;;;;;15.98;100.00;99607.47;6270628;28;20049;-77
2021/09/18 07:36:19;;;;;;;8.68;6.88;;;;;;;16.03;100.00;99601.78;6302795;28;20471;-76
2021/09/18 07:39:20;;;;;;;7.40;5.80;;;;;;;16.07;100.00;99608.41;6302693;28;20446;-76
2021/09/18 07:42:21;;;;;;;7.38;6.35;;;;;;;16.05;100.00;99607.72;6285890;28;20659;-76
2021/09/18 07:45:22;;;;;;;9.20;6.00;;;;;;;16.02;100.00;99611.47;6270334;28;20052;-77
2021/09/18 07:48:23;;;;;;;9.60;5.65;;;;;;;16.07;100.00;99611.88;6268767;28;20524;-77
2021/09/18 07:51:24;;;;;;;7.72;4.90;;;;;;;15.93;100.00;99609.66;6302445;28;20121;-77
2021/09/18 07:54:25;;;;;;;7.95;5.55;;;;;;;15.81;100.00;99611.59;6302048;28;20052;-77
2021/09/18 07:57:26;;;;;;;9.63;5.45;;;;;;;16.07;100.00;99606.59;6269060;28;20041;-76
2021/09/18 08:00:27;;;;;;;8.13;5.80;;;;;;;16.29;100.00;99610.75;6302440;28;20094;-76
2021/09/18 08:03:28;;;;;;;6.88;5.40;;;;;;;16.56;100.00;99603.06;6285450;28;20106;-76
2021/09/18 08:06:34;;;;;;;7.30;5.40;;;;;;;16.76;100.00;99615.22;6302346;28;20103;-76
2021/09/18 08:09:34;;;;;;;6.38;5.53;;;;;;;16.69;100.00;99609.66;6269986;28;20037;-76
2021/09/18 08:12:35;;;;;;;8.30;5.93;;;;;;;16.78;100.00;99621.16;6268877;28;20538;-76
2021/09/18 08:15:36;;;;;;;6.23;5.37;;;;;;;16.86;100.00;99615.19;6270117;28;20041;-77
2021/09/18 08:18:37;;;;;;;9.77;5.38;;;;;;;17.03;100.00;99624.97;6302238;28;20423;-75
2021/09/18 08:21:38;;;;;;;6.70;5.38;;;;;;;17.23;100.00;99635.41;6285340;28;20122;-74
2021/09/18 08:24:39;;;;;;;6.68;5.60;;;;;;;17.45;100.00;99627.09;6285363;28;20068;-74
2021/09/18 08:27:40;;;;;;;6.63;5.25;;;;;;;17.65;100.00;99627.00;6269902;28;20052;-77
2021/09/18 08:30:41;;;;;;;7.20;5.03;;;;;;;17.46;100.00;99634.06;6268774;28;20068;-77
2021/09/18 08:33:42;;;;;;;7.15;5.43;;;;;;;17.77;100.00;99617.03;6272784;28;20052;-76
2021/09/18 08:36:42;;;;;;;6.00;5.35;;;;;;;17.48;100.00;99623.34;6290136;28;20396;-76
2021/09/18 08:39:43;;;;;;;9.05;5.13;;;;;;;17.57;100.00;99614.53;6306974;28;20111;-77
2021/09/18 08:42:44;;;;;;;6.05;5.10;;;;;;;17.92;100.00;99621.66;6306908;28;20051;-77
2021/09/18 08:45:45;;;;;;;5.90;5.00;;;;;;;18.26;93.79;99626.25;6274717;28;20045;-76
2021/09/18 08:48:47;;;;;;;5.30;4.53;;;;;;;18.06;96.96;99617.66;6289742;28;20045;-76
2021/09/18 08:51:48;;;;;;;5.32;4.43;;;;;;;18.22;97.17;99622.25;6274453;28;20071;-77
2021/09/18 08:54:48;;;;;;;5.85;4.80;;;;;;;18.33;97.01;99614.06;6274076;28;20067;-77
2021/09/18 08:57:50;;;;;;;5.07;4.53;;;;;;;18.31;93.63;99625.78;6274624;28;20816;-77
2021/09/18 09:00:53;;;;;;;8.00;4.47;;;;;;;17.68;91.50;99616.94;6306708;28;20113;-76
2021/09/18 09:03:57;;;;;;;6.00;4.45;;;;;;;18.25;92.27;99621.94;6306261;28;20407;-76
2021/09/18 09:07:01;;;;;;;7.78;3.80;;;;;;;18.72;84.60;99613.66;6273013;28;20056;-76
2021/09/18 09:10:05;;;;;;;4.85;4.15;;;;;;;18.63;87.75;99621.69;6273937;28;20048;-76
2021/09/18 09:13:27;;;;;;;7.40;3.92;;;;;;;18.40;85.30;99616.09;6272648;28;20068;-76
2021/09/18 09:16:31;;;;;;;5.32;3.75;;;;;;;18.33;84.39;99614.06;6256389;28;20056;-78
2021/09/18 09:19:40;;;;;;;4.32;3.70;;;;;;;17.88;85.49;99612.41;6273835;28;20070;-77
2021/09/18 09:22:44;;;;;;;4.40;3.80;;;;;;;18.33;85.06;99613.25;6273503;28;20411;-77
2021/09/18 09:25:53;;;;;;;4.60;3.75;;;;;;;18.61;86.39;99603.34;6273596;28;20043;-75
2021/09/18 09:28:55;;;;;;;6.07;4.57;;;;;;;18.93;83.45;99609.84;6272440;28;20057;-75
2021/09/18 09:31:56;;;;;;;10.00;4.28;;;;;;;19.01;84.71;99599.28;6273482;28;20083;-75
2021/09/18 09:34:59;;;;;;;5.45;4.03;;;;;;;19.38;84.03;99615.78;6305381;28;20132;-76
2021/09/18 09:38:00;;;;;;;3.63;3.30;;;;;;;19.74;77.76;99597.84;6272081;28;20033;-76
2021/09/18 09:41:00;;;;;;;8.30;4.00;;;;;;;19.78;75.23;99598.34;6273144;28;20123;-76
2021/09/18 09:44:04;;;;;;;5.30;4.00;;;;;;;19.30;80.23;99598.06;6272345;28;20041;-74
2021/09/18 09:47:07;;;;;;;8.57;4.00;;;;;;;19.55;77.47;99591.00;6273266;28;20044;-75
2021/09/18 09:50:08;;;;;;;5.28;3.95;;;;;;;20.13;75.59;99590.06;6272963;28;20037;-74
2021/09/18 09:53:23;;;;;;;;;;;;;;;20.47;71.53;99590.88;6288394;28;20057;-74
2021/09/18 09:56:25;;;;;;;10.25;3.58;;;;;;;20.57;72.84;99580.91;6272892;28;19924;-76
2021/09/18 09:59:28;;;;;;;4.88;2.85;;;;;;;20.49;69.66;99587.06;6304694;28;20389;-77
2021/09/18 10:02:29;;;;;;;5.18;3.30;;;;;;;20.87;69.28;99584.66;6273212;28;20049;-76
2021/09/18 10:05:31;;;;;;;2.85;2.10;;;;;;;21.25;65.66;99583.97;6272884;28;20114;-74
2021/09/18 10:08:32;;;;;;;5.60;2.40;;;;;;;21.75;67.83;99581.88;6287848;28;20056;-74
2021/09/18 10:11:34;;;;;;;2.42;1.85;;;;;;;21.85;65.49;99577.97;6287930;28;20045;-76
2021/09/18 10:14:35;;;;;;;2.80;2.10;;;;;;;21.97;59.86;99575.72;6304289;28;20131;-76
2021/09/18 10:17:40;;;;;;;2.90;1.95;;;;;;;22.03;60.27;99571.50;6304693;28;20040;-76
2021/09/18 10:23:52;;;;;;;2.33;2.13;;;;;;;21.71;62.27;99568.13;6286390;28;20115;-76
2021/09/18 10:27:18;;;;;;;2.38;2.17;;;;;;;21.48;60.26;99574.25;6287484;28;20045;-76
2021/09/18 10:30:35;;;;;;;2.10;1.95;;;;;;;21.84;60.01;99578.97;6271975;28;20045;-75
2021/09/18 10:33:37;;;;;;;7.00;2.08;;;;;;;21.77;57.53;99579.88;6271899;28;20037;-75
2021/09/18 10:36:42;;;;;;;3.05;1.88;;;;;;;21.78;55.72;99573.56;6270702;28;20040;-77
2021/09/18 10:40:00;;;;;;;5.03;1.90;;;;;;;21.99;56.79;99576.38;6303195;28;20045;-77
2021/09/18 10:43:01;;;;;;;5.82;1.80;;;;;;;22.10;57.33;99570.63;6271732;28;20410;-75
2021/09/18 10:46:05;;;;;;;1.42;1.30;;;;;;;21.93;52.96;99569.94;6286758;28;20033;-77
2021/09/18 10:49:32;;;;;;;3.45;1.60;;;;;;;21.30;55.08;99561.22;6270346;28;20044;-75
2021/09/18 10:52:37;;;;;;;5.22;2.60;;;;;;;21.24;55.10;99553.97;6271403;28;20103;-76
2021/09/18 10:56:01;;;;;;;3.58;1.80;;;;;;;21.18;54.70;99562.63;6303391;28;20049;-76
2021/09/18 10:59:06;;;;;;;3.08;2.00;;;;;;;21.43;55.19;99563.31;6303587;28;20040;-76
2021/09/18 11:02:34;;;;;;;1.70;1.60;;;;;;;21.93;52.96;99550.53;6303415;28;20102;-78
2021/09/18 11:05:38;;;;;;;4.22;1.45;;;;;;;21.87;52.48;99553.91;6271159;28;20412;-77
2021/09/18 11:08:51;;;;;;;1.58;1.42;;;;;;;22.24;53.67;99553.09;6271274;28;20044;-76
2021/09/18 11:12:15;;;;;;;1.85;1.52;;;;;;;22.27;51.44;99551.91;6271142;28;20040;-74
2021/09/18 11:15:15;;;;;;;3.75;1.48;;;;;;;22.12;51.35;99563.28;6286103;28;20045;-75
2021/09/18 11:18:43;;;;;;;1.80;1.70;;;;;;;22.44;49.84;99539.25;6303125;28;20115;-76
2021/09/18 11:21:46;;;;;;;1.88;1.67;;;;;;;22.38;52.92;99542.66;6269719;28;20281;-76
2021/09/18 11:24:47;;;;;;;1.50;1.40;;;;;;;22.58;48.86;99535.78;6270906;28;20051;-78
2021/09/18 11:28:01;;;;;;;2.27;1.70;;;;;;;22.63;46.56;99546.69;6270832;28;20041;-78
2021/09/18 11:31:08;;;;;;;2.55;1.40;;;;;;;22.35;48.19;99540.38;6236884;28;20293;-77
2021/09/18 11:34:09;;;;;;;1.70;1.25;;;;;;;22.26;47.79;99535.13;6270444;28;20053;-75
2021/09/18 11:37:20;;;;;;;2.40;1.70;;;;;;;22.40;47.36;99543.28;6302776;28;20091;-74
2021/09/18 11:40:20;;;;;;;7.07;1.90;;;;;;;22.17;48.28;99532.72;6270498;28;20668;-74
2021/09/18 11:43:27;;;;;;;3.83;1.70;;;;;;;22.04;51.25;99531.50;6270580;28;20064;-76
2021/09/18 11:46:28;;;;;;;2.05;1.80;;;;;;;22.49;51.50;99532.38;6269066;28;20041;-74
2021/09/18 11:49:32;;;;;;;3.43;1.77;;;;;;;22.28;51.95;99530.47;6285802;28;20400;-74
2021/09/18 11:52:36;;;;;;;1.60;1.50;;;;;;;21.52;52.02;99541.06;6302414;28;20060;-75
2021/09/18 11:55:46;;;;;;;1.55;1.45;;;;;;;22.43;49.93;99533.13;6270083;28;20056;-74
2021/09/18 11:58:46;;;;;;;1.50;1.30;;;;;;;23.00;49.39;99534.28;6269251;28;20033;-74
2021/09/18 12:01:48;;;;;;;2.40;1.70;;;;;;;23.42;48.47;99532.69;6270255;28;20098;-75
2021/09/18 12:04:49;;;;;;;3.70;1.48;;;;;;;22.98;47.77;99525.66;6270025;28;20071;-75
2021/09/18 12:07:51;;;;;;;4.07;1.33;;;;;;;23.21;42.99;99517.53;6268498;28;20423;-75
2021/09/18 12:10:55;;;;;;;1.83;1.20;;;;;;;22.56;43.54;99516.53;6270003;28;20041;-74
2021/09/18 12:13:56;;;;;;;1.60;1.25;;;;;;;22.18;44.17;99518.44;6301593;28;20069;-75
2021/09/18 12:16:57;;;;;;;1.47;1.20;;;;;;;22.21;50.13;99521.53;6268735;28;20051;-75
2021/09/18 12:19:57;;;;;;;1.80;1.50;;;;;;;21.89;50.41;99525.34;6270006;28;20041;-75
2021/09/18 12:22:58;;;;;;;3.53;1.70;;;;;;;21.02;57.29;99533.53;6285466;28;20484;-75
2021/09/18 12:26:02;;;;;;;2.15;1.95;;;;;;;20.81;59.98;99528.84;6285248;28;20094;-78
2021/09/18 12:29:12;;;;;;;1.92;1.63;;;;;;;21.04;59.30;99537.66;6268696;28;20045;-78
2021/09/18 12:32:16;;;;;;;1.98;1.45;;;;;;;21.42;53.99;99527.19;6269893;28;20466;-78
2021/09/18 12:35:17;;;;;;;3.20;1.80;;;;;;;21.51;56.61;99531.44;6301124;28;20407;-78
2021/09/18 12:38:17;;;;;;;2.03;1.77;;;;;;;21.05;57.01;99544.63;6268483;28;20037;-78
2021/09/18 12:41:24;;;;;;;4.67;1.80;;;;;;;20.68;56.72;99547.94;6269744;28;20091;-78
2021/09/18 12:44:35;;;;;;;3.55;1.58;;;;;;;20.43;57.33;99555.94;6268539;28;20068;-78
2021/09/18 12:47:36;;;;;;;1.58;1.48;;;;;;;20.24;57.79;99554.50;6268731;28;20045;-76
2021/09/18 12:50:59;;;;;;;2.90;1.50;;;;;;;20.09;58.24;99554.31;6301842;28;20491;-76
2021/09/18 12:54:00;;;;;;;3.08;1.50;;;;;;;19.73;58.46;99548.56;6267196;28;20388;-76
2021/09/18 12:57:06;;;;;;;3.17;1.45;;;;;;;19.77;59.33;99549.03;6301820;28;20479;-75
2021/09/18 13:00:09;;;;;;;3.13;1.63;;;;;;;19.84;59.27;99547.41;6251815;28;20434;-75
2021/09/18 13:03:11;;;;;;;5.47;1.92;;;;;;;19.98;57.71;99551.22;6269524;28;20064;-78
2021/09/18 13:06:14;;;;;;;1.80;1.60;;;;;;;20.04;57.81;99554.00;6269418;28;20045;-77
2021/09/18 13:09:21;;;;;;;3.22;1.88;;;;;;;20.25;58.32;99542.06;6268107;28;20045;-78
2021/09/18 13:12:22;;;;;;;4.20;1.48;;;;;;;20.33;58.18;99537.56;6301555;28;20462;-78
2021/09/18 13:15:32;;;;;;;1.58;1.48;;;;;;;20.25;58.87;99537.59;6268133;28;20052;-78
2021/09/18 13:18:32;;;;;;;1.70;1.60;;;;;;;20.49;57.48;99539.34;6268902;28;20045;-78
2021/09/18 13:21:34;;;;;;;2.30;1.80;;;;;;;20.67;59.42;99543.63;6273751;28;20492;-79
2021/09/18 13:24:35;;;;;;;2.90;1.60;;;;;;;20.80;53.56;99535.16;6289080;28;20353;-79
2021/09/18 13:27:36;;;;;;;1.57;1.47;;;;;;;21.03;53.14;99528.06;6306263;28;20083;-75
2021/09/18 13:30:37;;;;;;;1.50;1.38;;;;;;;20.90;50.68;99536.59;6272194;28;20045;-74
2021/09/18 13:33:38;;;;;;;1.80;1.47;;;;;;;20.71;51.62;99534.34;6305592;28;20399;-74
2021/09/18 13:36:38;;;;;;;2.30;1.43;;;;;;;20.67;52.63;99535.69;6288783;28;20439;-75
2021/09/18 13:39:40;;;;;;;1.50;1.40;;;;;;;20.81;52.46;99534.94;6288699;28;20045;-75
2021/09/18 13:42:41;;;;;;;1.50;1.40;;;;;;;20.80;54.00;99535.16;6273146;28;20060;-74
2021/09/18 13:45:43;;;;;;;3.33;1.47;;;;;;;20.48;52.61;99532.38;6273263;28;20073;-75
2021/09/18 13:48:43;;;;;;;;;;;;;;;20.28;54.43;99537.25;6274152;28;20041;-76
2021/09/18 13:51:44;;;;;;;2.78;1.60;;;;;;;20.39;55.06;99532.59;6288397;28;19921;-78
2021/09/18 13:54:45;;;;;;;1.60;1.50;;;;;;;20.47;55.37;99536.06;6288278;28;20053;-78
2021/09/18 13:57:49;;;;;;;1.50;1.40;;;;;;;20.36;55.45;99525.81;6271702;28;20143;-78
2021/09/18 14:00:50;;;;;;;1.90;1.60;;;;;;;20.17;54.74;99534.94;6288227;28;20090;-79
2021/09/18 14:03:52;;;;;;;1.50;1.40;;;;;;;20.29;55.53;99530.13;6272803;28;20045;-77
2021/09/18 14:06:53;;;;;;;;;;;;;;;20.38;55.95;99528.28;6271820;28;20041;-75
2021/09/18 14:09:55;;;;;;;1.30;1.20;;;;;;;20.22;55.09;99521.19;6272620;28;19920;-75
2021/09/18 14:12:56;;;;;;;2.22;1.65;;;;;;;20.25;55.63;99526.19;6287810;28;20049;-75
2021/09/18 14:15:57;;;;;;;3.83;1.73;;;;;;;20.29;54.24;99514.25;6304581;28;20041;-77